sensor_id;sensor_type;location;lat;lon;timestamp;P1;durP1;ratioP1;P2;durP2;ratioP2
6723;SDS011;3399;52.530;13.304;2023-07-30T00:01:50;5.30;;;4.80;;
6723;SDS011;3399;52.530;13.304;2023-07-30T00:04:16;5.03;;;4.53;;
6723;SDS011;3399;52.530;13.304;2023-07-30T00:06:41;6.57;;;4.27;;
6723;SDS011;3399;52.530;13.304;2023-07-30T00:09:07;4.77;;;4.37;;
6723;SDS011;3399;52.530;13.304;2023-07-30T00:11:33;4.70;;;4.23;;
6723;SDS011;3399;52.530;13.304;2023-07-30T00:13:58;5.20;;;4.70;;
6723;SDS011;3399;52.530;13.304;2023-07-30T00:16:25;5.17;;;4.70;;
6723;SDS011;3399;52.530;13.304;2023-07-30T00:18:51;4.70;;;4.30;;
6723;SDS011;3399;52.530;13.304;2023-07-30T00:21:17;4.00;;;3.70;;
6723;SDS011;3399;52.530;13.304;2023-07-30T00:23:42;4.83;;;3.90;;
6723;SDS011;3399;52.530;13.304;2023-07-30T00:26:07;5.47;;;4.43;;
6723;SDS011;3399;52.530;13.304;2023-07-30T00:28:33;4.87;;;4.47;;
6723;SDS011;3399;52.530;13.304;2023-07-30T00:30:58;5.30;;;4.10;;
6723;SDS011;3399;52.530;13.304;2023-07-30T00:33:24;3.90;;;3.60;;
6723;SDS011;3399;52.530;13.304;2023-07-30T00:35:53;3.93;;;3.73;;
6723;SDS011;3399;52.530;13.304;2023-07-30T00:38:18;9.67;;;3.70;;
6723;SDS011;3399;52.530;13.304;2023-07-30T00:40:44;4.40;;;3.93;;
6723;SDS011;3399;52.530;13.304;2023-07-30T00:43:10;3.77;;;3.47;;
6723;SDS011;3399;52.530;13.304;2023-07-30T00:45:35;5.93;;;3.77;;
6723;SDS011;3399;52.530;13.304;2023-07-30T00:48:03;4.20;;;3.80;;
6723;SDS011;3399;52.530;13.304;2023-07-30T00:50:29;4.23;;;3.90;;
6723;SDS011;3399;52.530;13.304;2023-07-30T00:52:55;4.53;;;4.13;;
6723;SDS011;3399;52.530;13.304;2023-07-30T00:55:21;4.47;;;3.40;;
6723;SDS011;3399;52.530;13.304;2023-07-30T00:57:46;3.97;;;3.70;;
6723;SDS011;3399;52.530;13.304;2023-07-30T01:00:13;4.47;;;3.20;;
6723;SDS011;3399;52.530;13.304;2023-07-30T01:02:39;4.27;;;3.30;;
6723;SDS011;3399;52.530;13.304;2023-07-30T01:05:04;5.90;;;4.20;;
6723;SDS011;3399;52.530;13.304;2023-07-30T01:07:30;10.00;;;3.70;;
6723;SDS011;3399;52.530;13.304;2023-07-30T01:09:56;3.60;;;3.37;;
6723;SDS011;3399;52.530;13.304;2023-07-30T01:12:23;4.13;;;3.83;;
6723;SDS011;3399;52.530;13.304;2023-07-30T01:14:49;3.90;;;3.60;;
6723;SDS011;3399;52.530;13.304;2023-07-30T01:17:15;3.93;;;3.43;;
6723;SDS011;3399;52.530;13.304;2023-07-30T01:19:41;4.50;;;4.20;;
6723;SDS011;3399;52.530;13.304;2023-07-30T01:22:06;4.13;;;3.33;;
6723;SDS011;3399;52.530;13.304;2023-07-30T01:24:32;4.07;;;3.73;;
6723;SDS011;3399;52.530;13.304;2023-07-30T01:27:01;4.23;;;3.83;;
6723;SDS011;3399;52.530;13.304;2023-07-30T01:29:37;4.13;;;3.83;;
6723;SDS011;3399;52.530;13.304;2023-07-30T01:32:13;5.10;;;3.77;;
6723;SDS011;3399;52.530;13.304;2023-07-30T01:34:40;4.03;;;3.73;;
6723;SDS011;3399;52.530;13.304;2023-07-30T01:37:07;4.73;;;3.43;;
6723;SDS011;3399;52.530;13.304;2023-07-30T01:39:34;7.17;;;3.47;;
6723;SDS011;3399;52.530;13.304;2023-07-30T01:42:03;3.53;;;3.33;;
6723;SDS011;3399;52.530;13.304;2023-07-30T01:44:29;3.43;;;3.23;;
6723;SDS011;3399;52.530;13.304;2023-07-30T01:46:54;4.47;;;3.43;;
6723;SDS011;3399;52.530;13.304;2023-07-30T01:49:20;5.27;;;3.83;;
6723;SDS011;3399;52.530;13.304;2023-07-30T01:51:45;5.77;;;3.90;;
6723;SDS011;3399;52.530;13.304;2023-07-30T01:54:11;4.37;;;4.03;;
6723;SDS011;3399;52.530;13.304;2023-07-30T01:56:36;5.17;;;4.00;;
6723;SDS011;3399;52.530;13.304;2023-07-30T01:59:02;4.13;;;3.80;;
6723;SDS011;3399;52.530;13.304;2023-07-30T02:01:27;5.77;;;4.23;;
6723;SDS011;3399;52.530;13.304;2023-07-30T02:03:53;5.20;;;4.10;;
6723;SDS011;3399;52.530;13.304;2023-07-30T02:06:18;4.93;;;4.43;;
6723;SDS011;3399;52.530;13.304;2023-07-30T02:08:44;4.83;;;4.23;;
6723;SDS011;3399;52.530;13.304;2023-07-30T02:11:09;4.27;;;3.83;;
6723;SDS011;3399;52.530;13.304;2023-07-30T02:13:34;5.67;;;4.20;;
6723;SDS011;3399;52.530;13.304;2023-07-30T02:16:00;4.20;;;3.80;;
6723;SDS011;3399;52.530;13.304;2023-07-30T02:18:25;5.90;;;4.77;;
6723;SDS011;3399;52.530;13.304;2023-07-30T02:20:51;5.27;;;4.77;;
6723;SDS011;3399;52.530;13.304;2023-07-30T02:23:16;4.30;;;3.90;;
6723;SDS011;3399;52.530;13.304;2023-07-30T02:25:42;5.13;;;4.23;;
6723;SDS011;3399;52.530;13.304;2023-07-30T02:28:08;4.50;;;4.13;;
6723;SDS011;3399;52.530;13.304;2023-07-30T02:30:34;5.93;;;4.93;;
6723;SDS011;3399;52.530;13.304;2023-07-30T02:33:00;4.47;;;4.07;;
6723;SDS011;3399;52.530;13.304;2023-07-30T02:35:26;5.23;;;4.73;;
6723;SDS011;3399;52.530;13.304;2023-07-30T02:37:51;4.10;;;3.80;;
6723;SDS011;3399;52.530;13.304;2023-07-30T02:40:17;4.67;;;4.27;;
6723;SDS011;3399;52.530;13.304;2023-07-30T02:42:42;5.33;;;3.93;;
6723;SDS011;3399;52.530;13.304;2023-07-30T02:45:08;4.03;;;3.47;;
6723;SDS011;3399;52.530;13.304;2023-07-30T02:47:33;7.63;;;3.80;;
6723;SDS011;3399;52.530;13.304;2023-07-30T02:49:59;4.47;;;4.17;;
6723;SDS011;3399;52.530;13.304;2023-07-30T02:52:24;3.63;;;3.33;;
6723;SDS011;3399;52.530;13.304;2023-07-30T02:54:50;3.93;;;3.63;;
6723;SDS011;3399;52.530;13.304;2023-07-30T02:57:15;4.47;;;4.07;;
6723;SDS011;3399;52.530;13.304;2023-07-30T02:59:40;4.30;;;3.90;;
6723;SDS011;3399;52.530;13.304;2023-07-30T03:02:06;4.97;;;4.67;;
6723;SDS011;3399;52.530;13.304;2023-07-30T03:04:32;4.90;;;4.50;;
6723;SDS011;3399;52.530;13.304;2023-07-30T03:06:58;4.67;;;4.27;;
6723;SDS011;3399;52.530;13.304;2023-07-30T03:09:23;5.17;;;4.00;;
6723;SDS011;3399;52.530;13.304;2023-07-30T03:11:49;4.70;;;4.23;;
6723;SDS011;3399;52.530;13.304;2023-07-30T03:14:15;4.27;;;3.93;;
6723;SDS011;3399;52.530;13.304;2023-07-30T03:16:41;4.43;;;4.13;;
6723;SDS011;3399;52.530;13.304;2023-07-30T03:19:06;8.77;;;6.23;;
6723;SDS011;3399;52.530;13.304;2023-07-30T03:21:32;7.87;;;5.40;;
6723;SDS011;3399;52.530;13.304;2023-07-30T03:23:57;5.00;;;4.60;;
6723;SDS011;3399;52.530;13.304;2023-07-30T03:26:23;4.87;;;4.37;;
6723;SDS011;3399;52.530;13.304;2023-07-30T03:28:49;7.83;;;4.90;;
6723;SDS011;3399;52.530;13.304;2023-07-30T03:31:14;6.50;;;4.53;;
6723;SDS011;3399;52.530;13.304;2023-07-30T03:33:40;4.83;;;4.43;;
6723;SDS011;3399;52.530;13.304;2023-07-30T03:36:08;5.97;;;4.80;;
6723;SDS011;3399;52.530;13.304;2023-07-30T03:38:38;6.93;;;4.40;;
6723;SDS011;3399;52.530;13.304;2023-07-30T03:41:04;4.40;;;4.10;;
6723;SDS011;3399;52.530;13.304;2023-07-30T03:43:31;4.87;;;4.40;;
6723;SDS011;3399;52.530;13.304;2023-07-30T03:45:56;4.90;;;4.50;;
6723;SDS011;3399;52.530;13.304;2023-07-30T03:48:22;5.40;;;5.00;;
6723;SDS011;3399;52.530;13.304;2023-07-30T03:50:47;4.47;;;4.17;;
6723;SDS011;3399;52.530;13.304;2023-07-30T03:53:13;5.43;;;4.80;;
6723;SDS011;3399;52.530;13.304;2023-07-30T03:55:38;5.07;;;4.67;;
6723;SDS011;3399;52.530;13.304;2023-07-30T03:58:05;4.87;;;4.47;;
6723;SDS011;3399;52.530;13.304;2023-07-30T04:00:30;5.23;;;4.73;;
6723;SDS011;3399;52.530;13.304;2023-07-30T04:02:56;6.13;;;5.53;;
6723;SDS011;3399;52.530;13.304;2023-07-30T04:05:21;5.17;;;4.77;;
6723;SDS011;3399;52.530;13.304;2023-07-30T04:07:47;5.23;;;4.73;;
6723;SDS011;3399;52.530;13.304;2023-07-30T04:10:12;5.83;;;5.23;;
6723;SDS011;3399;52.530;13.304;2023-07-30T04:12:37;5.27;;;4.83;;
6723;SDS011;3399;52.530;13.304;2023-07-30T04:15:03;4.83;;;4.43;;
6723;SDS011;3399;52.530;13.304;2023-07-30T04:17:29;5.33;;;4.93;;
6723;SDS011;3399;52.530;13.304;2023-07-30T04:19:54;5.90;;;4.80;;
6723;SDS011;3399;52.530;13.304;2023-07-30T04:22:20;5.17;;;4.87;;
6723;SDS011;3399;52.530;13.304;2023-07-30T04:24:46;8.90;;;4.70;;
6723;SDS011;3399;52.530;13.304;2023-07-30T04:27:11;5.43;;;5.03;;
6723;SDS011;3399;52.530;13.304;2023-07-30T04:29:37;5.17;;;4.67;;
6723;SDS011;3399;52.530;13.304;2023-07-30T04:32:02;5.37;;;4.97;;
6723;SDS011;3399;52.530;13.304;2023-07-30T04:34:28;5.40;;;4.90;;
6723;SDS011;3399;52.530;13.304;2023-07-30T04:36:53;7.03;;;5.10;;
6723;SDS011;3399;52.530;13.304;2023-07-30T04:39:19;5.23;;;4.83;;
6723;SDS011;3399;52.530;13.304;2023-07-30T04:41:44;5.27;;;4.90;;
6723;SDS011;3399;52.530;13.304;2023-07-30T04:44:09;5.83;;;5.33;;
6723;SDS011;3399;52.530;13.304;2023-07-30T04:46:35;6.27;;;4.57;;
6723;SDS011;3399;52.530;13.304;2023-07-30T04:49:04;5.67;;;5.00;;
6723;SDS011;3399;52.530;13.304;2023-07-30T04:51:29;5.03;;;4.67;;
6723;SDS011;3399;52.530;13.304;2023-07-30T04:53:55;5.60;;;5.10;;
6723;SDS011;3399;52.530;13.304;2023-07-30T04:56:20;5.47;;;5.07;;
6723;SDS011;3399;52.530;13.304;2023-07-30T04:58:46;5.87;;;5.27;;
6723;SDS011;3399;52.530;13.304;2023-07-30T05:01:11;5.23;;;4.83;;
6723;SDS011;3399;52.530;13.304;2023-07-30T05:03:37;5.20;;;4.80;;
6723;SDS011;3399;52.530;13.304;2023-07-30T05:06:02;4.73;;;4.33;;
6723;SDS011;3399;52.530;13.304;2023-07-30T05:08:28;4.80;;;4.50;;
6723;SDS011;3399;52.530;13.304;2023-07-30T05:10:53;5.20;;;4.80;;
6723;SDS011;3399;52.530;13.304;2023-07-30T05:13:19;6.90;;;4.47;;
6723;SDS011;3399;52.530;13.304;2023-07-30T05:15:44;5.50;;;5.10;;
6723;SDS011;3399;52.530;13.304;2023-07-30T05:18:10;4.70;;;4.40;;
6723;SDS011;3399;52.530;13.304;2023-07-30T05:20:35;4.57;;;4.17;;
6723;SDS011;3399;52.530;13.304;2023-07-30T05:23:00;4.20;;;3.90;;
6723;SDS011;3399;52.530;13.304;2023-07-30T05:25:27;4.53;;;4.03;;
6723;SDS011;3399;52.530;13.304;2023-07-30T05:27:53;5.17;;;3.67;;
6723;SDS011;3399;52.530;13.304;2023-07-30T05:30:18;3.93;;;3.63;;
6723;SDS011;3399;52.530;13.304;2023-07-30T05:32:43;3.37;;;3.17;;
6723;SDS011;3399;52.530;13.304;2023-07-30T05:35:09;3.33;;;3.13;;
6723;SDS011;3399;52.530;13.304;2023-07-30T05:37:34;3.80;;;3.50;;
6723;SDS011;3399;52.530;13.304;2023-07-30T05:40:00;3.90;;;3.60;;
6723;SDS011;3399;52.530;13.304;2023-07-30T05:42:25;3.67;;;3.47;;
6723;SDS011;3399;52.530;13.304;2023-07-30T05:44:51;4.73;;;3.50;;
6723;SDS011;3399;52.530;13.304;2023-07-30T05:47:16;3.60;;;3.40;;
6723;SDS011;3399;52.530;13.304;2023-07-30T05:49:42;3.80;;;3.40;;
6723;SDS011;3399;52.530;13.304;2023-07-30T05:52:07;3.87;;;3.57;;
6723;SDS011;3399;52.530;13.304;2023-07-30T05:54:33;4.97;;;3.50;;
6723;SDS011;3399;52.530;13.304;2023-07-30T05:56:58;7.23;;;4.00;;
6723;SDS011;3399;52.530;13.304;2023-07-30T05:59:24;4.00;;;3.70;;
6723;SDS011;3399;52.530;13.304;2023-07-30T06:01:49;4.37;;;3.33;;
6723;SDS011;3399;52.530;13.304;2023-07-30T06:04:15;3.50;;;3.30;;
6723;SDS011;3399;52.530;13.304;2023-07-30T06:06:40;3.63;;;3.43;;
6723;SDS011;3399;52.530;13.304;2023-07-30T06:09:06;3.67;;;3.47;;
6723;SDS011;3399;52.530;13.304;2023-07-30T06:11:31;3.80;;;3.47;;
6723;SDS011;3399;52.530;13.304;2023-07-30T06:13:56;3.37;;;3.17;;
6723;SDS011;3399;52.530;13.304;2023-07-30T06:16:22;5.47;;;3.40;;
6723;SDS011;3399;52.530;13.304;2023-07-30T06:18:47;3.43;;;3.17;;
6723;SDS011;3399;52.530;13.304;2023-07-30T06:21:13;3.83;;;3.13;;
6723;SDS011;3399;52.530;13.304;2023-07-30T06:23:38;2.90;;;2.70;;
6723;SDS011;3399;52.530;13.304;2023-07-30T06:26:04;4.53;;;3.10;;
6723;SDS011;3399;52.530;13.304;2023-07-30T06:28:29;3.10;;;2.90;;
6723;SDS011;3399;52.530;13.304;2023-07-30T06:30:55;3.67;;;3.37;;
6723;SDS011;3399;52.530;13.304;2023-07-30T06:33:20;2.60;;;2.50;;
6723;SDS011;3399;52.530;13.304;2023-07-30T06:35:46;4.30;;;2.77;;
6723;SDS011;3399;52.530;13.304;2023-07-30T06:38:11;3.70;;;2.80;;
6723;SDS011;3399;52.530;13.304;2023-07-30T06:40:37;3.87;;;2.83;;
6723;SDS011;3399;52.530;13.304;2023-07-30T06:43:02;3.67;;;2.60;;
6723;SDS011;3399;52.530;13.304;2023-07-30T06:45:28;2.77;;;2.57;;
6723;SDS011;3399;52.530;13.304;2023-07-30T06:47:53;4.20;;;2.77;;
6723;SDS011;3399;52.530;13.304;2023-07-30T06:50:19;2.50;;;2.30;;
6723;SDS011;3399;52.530;13.304;2023-07-30T06:52:44;3.20;;;2.90;;
6723;SDS011;3399;52.530;13.304;2023-07-30T06:55:10;3.63;;;3.20;;
6723;SDS011;3399;52.530;13.304;2023-07-30T06:57:35;3.00;;;2.80;;
6723;SDS011;3399;52.530;13.304;2023-07-30T07:00:01;2.67;;;2.47;;
6723;SDS011;3399;52.530;13.304;2023-07-30T07:02:28;3.00;;;2.80;;
6723;SDS011;3399;52.530;13.304;2023-07-30T07:04:54;3.50;;;3.20;;
6723;SDS011;3399;52.530;13.304;2023-07-30T07:07:19;5.37;;;3.67;;
6723;SDS011;3399;52.530;13.304;2023-07-30T07:09:45;3.47;;;2.90;;
6723;SDS011;3399;52.530;13.304;2023-07-30T07:12:11;3.60;;;3.10;;
6723;SDS011;3399;52.530;13.304;2023-07-30T07:14:36;6.00;;;3.60;;
6723;SDS011;3399;52.530;13.304;2023-07-30T07:17:02;4.40;;;3.53;;
6723;SDS011;3399;52.530;13.304;2023-07-30T07:19:27;4.03;;;3.63;;
6723;SDS011;3399;52.530;13.304;2023-07-30T07:21:53;4.10;;;3.10;;
6723;SDS011;3399;52.530;13.304;2023-07-30T07:24:18;3.60;;;3.30;;
6723;SDS011;3399;52.530;13.304;2023-07-30T07:26:44;4.03;;;3.33;;
6723;SDS011;3399;52.530;13.304;2023-07-30T07:29:09;3.90;;;3.03;;
6723;SDS011;3399;52.530;13.304;2023-07-30T07:31:35;3.40;;;3.13;;
6723;SDS011;3399;52.530;13.304;2023-07-30T07:34:01;3.37;;;3.17;;
6723;SDS011;3399;52.530;13.304;2023-07-30T07:36:26;4.50;;;3.60;;
6723;SDS011;3399;52.530;13.304;2023-07-30T07:38:52;4.07;;;3.77;;
6723;SDS011;3399;52.530;13.304;2023-07-30T07:41:17;3.47;;;3.20;;
6723;SDS011;3399;52.530;13.304;2023-07-30T07:43:43;4.00;;;3.60;;
6723;SDS011;3399;52.530;13.304;2023-07-30T07:46:09;6.97;;;4.83;;
6723;SDS011;3399;52.530;13.304;2023-07-30T07:48:38;3.80;;;3.50;;
6723;SDS011;3399;52.530;13.304;2023-07-30T07:51:05;4.13;;;3.33;;
6723;SDS011;3399;52.530;13.304;2023-07-30T07:53:31;3.90;;;3.60;;
6723;SDS011;3399;52.530;13.304;2023-07-30T07:55:56;3.50;;;3.23;;
6723;SDS011;3399;52.530;13.304;2023-07-30T07:58:22;4.60;;;3.53;;
6723;SDS011;3399;52.530;13.304;2023-07-30T08:00:47;3.37;;;2.93;;
6723;SDS011;3399;52.530;13.304;2023-07-30T08:03:13;4.27;;;3.97;;
6723;SDS011;3399;52.530;13.304;2023-07-30T08:05:38;3.60;;;3.30;;
6723;SDS011;3399;52.530;13.304;2023-07-30T08:08:04;3.00;;;2.80;;
6723;SDS011;3399;52.530;13.304;2023-07-30T08:10:29;4.50;;;3.40;;
6723;SDS011;3399;52.530;13.304;2023-07-30T08:12:55;4.53;;;3.77;;
6723;SDS011;3399;52.530;13.304;2023-07-30T08:15:20;3.67;;;3.47;;
6723;SDS011;3399;52.530;13.304;2023-07-30T08:17:46;3.67;;;3.43;;
6723;SDS011;3399;52.530;13.304;2023-07-30T08:20:11;4.77;;;3.80;;
6723;SDS011;3399;52.530;13.304;2023-07-30T08:22:37;5.57;;;3.63;;
6723;SDS011;3399;52.530;13.304;2023-07-30T08:25:02;3.87;;;3.40;;
6723;SDS011;3399;52.530;13.304;2023-07-30T08:27:28;4.10;;;3.40;;
6723;SDS011;3399;52.530;13.304;2023-07-30T08:29:54;4.33;;;2.90;;
6723;SDS011;3399;52.530;13.304;2023-07-30T08:32:19;3.23;;;2.93;;
6723;SDS011;3399;52.530;13.304;2023-07-30T08:34:45;5.67;;;3.07;;
6723;SDS011;3399;52.530;13.304;2023-07-30T08:37:10;4.40;;;2.80;;
6723;SDS011;3399;52.530;13.304;2023-07-30T08:39:36;3.80;;;3.07;;
6723;SDS011;3399;52.530;13.304;2023-07-30T08:42:02;3.77;;;2.97;;
6723;SDS011;3399;52.530;13.304;2023-07-30T08:44:27;4.50;;;2.70;;
6723;SDS011;3399;52.530;13.304;2023-07-30T08:46:54;2.43;;;2.23;;
6723;SDS011;3399;52.530;13.304;2023-07-30T08:49:19;2.23;;;2.13;;
6723;SDS011;3399;52.530;13.304;2023-07-30T08:51:45;2.97;;;2.70;;
6723;SDS011;3399;52.530;13.304;2023-07-30T08:54:13;2.40;;;2.20;;
6723;SDS011;3399;52.530;13.304;2023-07-30T08:56:41;3.07;;;2.87;;
6723;SDS011;3399;52.530;13.304;2023-07-30T08:59:06;4.40;;;2.73;;
6723;SDS011;3399;52.530;13.304;2023-07-30T09:01:34;4.83;;;2.97;;
6723;SDS011;3399;52.530;13.304;2023-07-30T09:04:03;4.70;;;3.07;;
6723;SDS011;3399;52.530;13.304;2023-07-30T09:06:30;5.90;;;2.60;;
6723;SDS011;3399;52.530;13.304;2023-07-30T09:08:55;5.67;;;2.80;;
6723;SDS011;3399;52.530;13.304;2023-07-30T09:11:21;5.00;;;3.17;;
6723;SDS011;3399;52.530;13.304;2023-07-30T09:13:50;2.70;;;2.50;;
6723;SDS011;3399;52.530;13.304;2023-07-30T09:16:19;3.63;;;2.83;;
6723;SDS011;3399;52.530;13.304;2023-07-30T09:18:49;3.70;;;3.10;;
6723;SDS011;3399;52.530;13.304;2023-07-30T09:21:15;2.57;;;2.37;;
6723;SDS011;3399;52.530;13.304;2023-07-30T09:23:41;5.27;;;2.80;;
6723;SDS011;3399;52.530;13.304;2023-07-30T09:26:07;2.97;;;2.57;;
6723;SDS011;3399;52.530;13.304;2023-07-30T09:28:33;4.00;;;2.67;;
6723;SDS011;3399;52.530;13.304;2023-07-30T09:30:59;4.03;;;2.63;;
6723;SDS011;3399;52.530;13.304;2023-07-30T09:33:30;6.93;;;2.90;;
6723;SDS011;3399;52.530;13.304;2023-07-30T09:35:57;4.30;;;2.77;;
6723;SDS011;3399;52.530;13.304;2023-07-30T09:38:22;4.70;;;2.10;;
6723;SDS011;3399;52.530;13.304;2023-07-30T09:40:48;4.23;;;2.53;;
6723;SDS011;3399;52.530;13.304;2023-07-30T09:43:15;3.33;;;2.47;;
6723;SDS011;3399;52.530;13.304;2023-07-30T09:45:43;3.07;;;2.70;;
6723;SDS011;3399;52.530;13.304;2023-07-30T09:48:11;2.97;;;2.50;;
6723;SDS011;3399;52.530;13.304;2023-07-30T09:50:37;2.67;;;2.33;;
6723;SDS011;3399;52.530;13.304;2023-07-30T09:53:03;2.70;;;2.40;;
6723;SDS011;3399;52.530;13.304;2023-07-30T09:55:29;2.57;;;2.37;;
6723;SDS011;3399;52.530;13.304;2023-07-30T09:57:55;2.60;;;2.40;;
6723;SDS011;3399;52.530;13.304;2023-07-30T10:00:20;3.17;;;2.70;;
6723;SDS011;3399;52.530;13.304;2023-07-30T10:02:46;2.80;;;2.60;;
6723;SDS011;3399;52.530;13.304;2023-07-30T10:05:17;2.33;;;2.13;;
6723;SDS011;3399;52.530;13.304;2023-07-30T10:07:50;4.63;;;3.00;;
6723;SDS011;3399;52.530;13.304;2023-07-30T10:10:22;2.33;;;2.13;;
6723;SDS011;3399;52.530;13.304;2023-07-30T10:12:50;1.80;;;1.70;;
6723;SDS011;3399;52.530;13.304;2023-07-30T10:15:20;3.03;;;2.83;;
6723;SDS011;3399;52.530;13.304;2023-07-30T10:17:48;4.47;;;2.60;;
6723;SDS011;3399;52.530;13.304;2023-07-30T10:20:25;3.47;;;2.20;;
6723;SDS011;3399;52.530;13.304;2023-07-30T10:22:54;2.10;;;2.00;;
6723;SDS011;3399;52.530;13.304;2023-07-30T10:25:21;2.40;;;2.20;;
6723;SDS011;3399;52.530;13.304;2023-07-30T10:27:51;2.80;;;1.93;;
6723;SDS011;3399;52.530;13.304;2023-07-30T10:30:18;5.30;;;2.87;;
6723;SDS011;3399;52.530;13.304;2023-07-30T10:35:36;3.73;;;2.73;;
6723;SDS011;3399;52.530;13.304;2023-07-30T10:38:19;2.33;;;2.00;;
6723;SDS011;3399;52.530;13.304;2023-07-30T10:40:59;3.03;;;2.27;;
6723;SDS011;3399;52.530;13.304;2023-07-30T10:43:30;3.07;;;2.10;;
6723;SDS011;3399;52.530;13.304;2023-07-30T10:45:59;3.20;;;2.60;;
6723;SDS011;3399;52.530;13.304;2023-07-30T10:48:31;4.10;;;2.57;;
6723;SDS011;3399;52.530;13.304;2023-07-30T10:50:58;4.27;;;2.47;;
6723;SDS011;3399;52.530;13.304;2023-07-30T10:53:24;3.27;;;2.40;;
6723;SDS011;3399;52.530;13.304;2023-07-30T10:55:49;3.07;;;2.57;;
6723;SDS011;3399;52.530;13.304;2023-07-30T10:58:17;2.77;;;2.53;;
6723;SDS011;3399;52.530;13.304;2023-07-30T11:00:43;3.30;;;2.40;;
6723;SDS011;3399;52.530;13.304;2023-07-30T11:03:08;2.77;;;1.83;;
6723;SDS011;3399;52.530;13.304;2023-07-30T11:05:34;2.97;;;2.70;;
6723;SDS011;3399;52.530;13.304;2023-07-30T11:08:02;5.00;;;2.23;;
6723;SDS011;3399;52.530;13.304;2023-07-30T11:10:28;3.00;;;2.20;;
6723;SDS011;3399;52.530;13.304;2023-07-30T11:12:53;2.83;;;1.80;;
6723;SDS011;3399;52.530;13.304;2023-07-30T11:15:19;4.57;;;2.07;;
6723;SDS011;3399;52.530;13.304;2023-07-30T11:17:44;4.63;;;2.70;;
6723;SDS011;3399;52.530;13.304;2023-07-30T11:20:23;2.40;;;2.20;;
6723;SDS011;3399;52.530;13.304;2023-07-30T11:22:52;2.30;;;1.83;;
6723;SDS011;3399;52.530;13.304;2023-07-30T11:25:18;7.30;;;2.43;;
6723;SDS011;3399;52.530;13.304;2023-07-30T11:27:45;4.80;;;2.33;;
6723;SDS011;3399;52.530;13.304;2023-07-30T11:30:11;2.90;;;2.03;;
6723;SDS011;3399;52.530;13.304;2023-07-30T11:32:37;2.43;;;1.63;;
6723;SDS011;3399;52.530;13.304;2023-07-30T11:35:04;2.37;;;2.17;;
6723;SDS011;3399;52.530;13.304;2023-07-30T11:37:31;4.03;;;2.27;;
6723;SDS011;3399;52.530;13.304;2023-07-30T11:39:57;4.35;;;2.30;;
6723;SDS011;3399;52.530;13.304;2023-07-30T11:42:22;2.93;;;2.07;;
6723;SDS011;3399;52.530;13.304;2023-07-30T11:44:49;13.85;;;2.60;;
6723;SDS011;3399;52.530;13.304;2023-07-30T11:47:22;4.33;;;2.00;;
6723;SDS011;3399;52.530;13.304;2023-07-30T11:49:57;2.50;;;2.00;;
6723;SDS011;3399;52.530;13.304;2023-07-30T11:52:23;3.80;;;2.33;;
6723;SDS011;3399;52.530;13.304;2023-07-30T11:54:59;2.20;;;1.65;;
6723;SDS011;3399;52.530;13.304;2023-07-30T11:57:34;2.95;;;2.03;;
6723;SDS011;3399;52.530;13.304;2023-07-30T12:00:00;2.28;;;2.00;;
6723;SDS011;3399;52.530;13.304;2023-07-30T12:02:26;5.63;;;2.10;;
6723;SDS011;3399;52.530;13.304;2023-07-30T12:04:52;3.30;;;2.10;;
6723;SDS011;3399;52.530;13.304;2023-07-30T12:07:24;2.45;;;2.17;;
6723;SDS011;3399;52.530;13.304;2023-07-30T12:09:50;3.00;;;2.00;;
6723;SDS011;3399;52.530;13.304;2023-07-30T12:12:15;2.85;;;2.33;;
6723;SDS011;3399;52.530;13.304;2023-07-30T12:17:13;4.73;;;2.37;;
6723;SDS011;3399;52.530;13.304;2023-07-30T12:19:38;4.53;;;2.70;;
6723;SDS011;3399;52.530;13.304;2023-07-30T12:22:05;2.42;;;2.20;;
6723;SDS011;3399;52.530;13.304;2023-07-30T12:24:31;3.20;;;2.30;;
6723;SDS011;3399;52.530;13.304;2023-07-30T12:26:56;7.15;;;2.53;;
6723;SDS011;3399;52.530;13.304;2023-07-30T12:29:22;3.08;;;2.20;;
6723;SDS011;3399;52.530;13.304;2023-07-30T12:31:47;4.83;;;3.00;;
6723;SDS011;3399;52.530;13.304;2023-07-30T12:34:14;3.50;;;2.33;;
6723;SDS011;3399;52.530;13.304;2023-07-30T12:36:40;3.63;;;2.07;;
6723;SDS011;3399;52.530;13.304;2023-07-30T12:39:05;5.17;;;3.17;;
6723;SDS011;3399;52.530;13.304;2023-07-30T12:41:32;3.17;;;2.03;;
6723;SDS011;3399;52.530;13.304;2023-07-30T12:43:57;3.35;;;2.22;;
6723;SDS011;3399;52.530;13.304;2023-07-30T12:46:23;2.53;;;2.23;;
6723;SDS011;3399;52.530;13.304;2023-07-30T12:48:51;3.87;;;2.57;;
6723;SDS011;3399;52.530;13.304;2023-07-30T12:51:16;3.45;;;2.33;;
6723;SDS011;3399;52.530;13.304;2023-07-30T12:53:42;3.30;;;2.67;;
6723;SDS011;3399;52.530;13.304;2023-07-30T12:56:07;3.40;;;2.15;;
6723;SDS011;3399;52.530;13.304;2023-07-30T12:58:33;4.70;;;2.53;;
6723;SDS011;3399;52.530;13.304;2023-07-30T13:00:58;2.83;;;2.15;;
6723;SDS011;3399;52.530;13.304;2023-07-30T13:03:24;3.97;;;2.28;;
6723;SDS011;3399;52.530;13.304;2023-07-30T13:05:49;5.30;;;2.33;;
6723;SDS011;3399;52.530;13.304;2023-07-30T13:08:15;3.30;;;2.40;;
6723;SDS011;3399;52.530;13.304;2023-07-30T13:10:40;2.83;;;2.57;;
6723;SDS011;3399;52.530;13.304;2023-07-30T13:13:06;5.27;;;2.53;;
6723;SDS011;3399;52.530;13.304;2023-07-30T13:15:31;5.60;;;2.80;;
6723;SDS011;3399;52.530;13.304;2023-07-30T13:17:57;4.10;;;2.80;;
6723;SDS011;3399;52.530;13.304;2023-07-30T13:20:22;3.83;;;2.67;;
6723;SDS011;3399;52.530;13.304;2023-07-30T13:22:49;5.00;;;2.80;;
6723;SDS011;3399;52.530;13.304;2023-07-30T13:25:15;5.93;;;2.90;;
6723;SDS011;3399;52.530;13.304;2023-07-30T13:27:40;4.93;;;2.03;;
6723;SDS011;3399;52.530;13.304;2023-07-30T13:30:06;4.30;;;3.23;;
6723;SDS011;3399;52.530;13.304;2023-07-30T13:32:32;3.28;;;3.05;;
6723;SDS011;3399;52.530;13.304;2023-07-30T13:34:57;10.02;;;3.10;;
6723;SDS011;3399;52.530;13.304;2023-07-30T13:37:23;2.70;;;2.43;;
6723;SDS011;3399;52.530;13.304;2023-07-30T13:39:49;9.00;;;4.53;;
6723;SDS011;3399;52.530;13.304;2023-07-30T13:42:14;2.63;;;1.90;;
6723;SDS011;3399;52.530;13.304;2023-07-30T13:44:40;1.73;;;1.63;;
6723;SDS011;3399;52.530;13.304;2023-07-30T13:47:05;4.23;;;2.97;;
6723;SDS011;3399;52.530;13.304;2023-07-30T13:49:31;10.50;;;5.37;;
6723;SDS011;3399;52.530;13.304;2023-07-30T13:51:56;3.13;;;2.70;;
6723;SDS011;3399;52.530;13.304;2023-07-30T13:54:21;3.20;;;2.90;;
6723;SDS011;3399;52.530;13.304;2023-07-30T13:56:47;6.73;;;2.63;;
6723;SDS011;3399;52.530;13.304;2023-07-30T13:59:12;4.07;;;2.23;;
6723;SDS011;3399;52.530;13.304;2023-07-30T14:01:38;3.90;;;2.10;;
6723;SDS011;3399;52.530;13.304;2023-07-30T14:04:03;4.97;;;3.30;;
6723;SDS011;3399;52.530;13.304;2023-07-30T14:06:29;3.73;;;3.33;;
6723;SDS011;3399;52.530;13.304;2023-07-30T14:08:55;5.43;;;3.20;;
6723;SDS011;3399;52.530;13.304;2023-07-30T14:11:21;4.10;;;2.67;;
6723;SDS011;3399;52.530;13.304;2023-07-30T14:13:46;3.57;;;1.80;;
6723;SDS011;3399;52.530;13.304;2023-07-30T14:16:12;2.47;;;1.63;;
6723;SDS011;3399;52.530;13.304;2023-07-30T14:18:38;3.50;;;1.80;;
6723;SDS011;3399;52.530;13.304;2023-07-30T14:21:04;4.80;;;2.17;;
6723;SDS011;3399;52.530;13.304;2023-07-30T14:23:29;3.80;;;2.27;;
6723;SDS011;3399;52.530;13.304;2023-07-30T14:25:55;3.03;;;2.17;;
6723;SDS011;3399;52.530;13.304;2023-07-30T14:28:20;2.07;;;1.87;;
6723;SDS011;3399;52.530;13.304;2023-07-30T14:30:46;3.93;;;1.73;;
6723;SDS011;3399;52.530;13.304;2023-07-30T14:33:11;2.40;;;1.73;;
6723;SDS011;3399;52.530;13.304;2023-07-30T14:35:37;3.23;;;1.77;;
6723;SDS011;3399;52.530;13.304;2023-07-30T14:38:03;2.43;;;1.60;;
6723;SDS011;3399;52.530;13.304;2023-07-30T14:40:29;1.90;;;1.80;;
6723;SDS011;3399;52.530;13.304;2023-07-30T14:42:55;1.97;;;1.77;;
6723;SDS011;3399;52.530;13.304;2023-07-30T14:45:21;4.10;;;1.40;;
6723;SDS011;3399;52.530;13.304;2023-07-30T14:47:47;2.60;;;1.53;;
6723;SDS011;3399;52.530;13.304;2023-07-30T14:50:12;4.37;;;2.13;;
6723;SDS011;3399;52.530;13.304;2023-07-30T14:52:38;2.00;;;1.80;;
6723;SDS011;3399;52.530;13.304;2023-07-30T14:55:04;2.10;;;1.50;;
6723;SDS011;3399;52.530;13.304;2023-07-30T14:57:29;3.30;;;1.70;;
6723;SDS011;3399;52.530;13.304;2023-07-30T14:59:55;3.97;;;1.77;;